Darstellungsparameter: Aktuell verwendete Einstellungen:
Skalierung der Graphiken ... ?
xyx+y,   Skalierungsfaktor:      Skalierung: Modus: x, Faktor: 1
Darstellungszeitraum ... ?
Vom - - bis: - -   Zeitraum: 13.05.2015 - 13.05.2015
Min/Max/Avg-Anzeige ... ?
Zeige MMA aktuell
Zeige MMA Monat
Zeige MMA alles
Zeige --A aktuell
Zeige --A Monat
Zeige --A alles
Keine MMA-Anzeige
MMA:
Minimum Maximum Average (ber die Originaldaten)
MMA-Basis: 13.05.2015 - 13.05.2015
Quicknavigation für Darstellung... ?
Tage:      1T, 2T, 3T, 5T -1T -2T -3T -5T +1T +2T +3T +5T
Wochen: 1W, 2W, 3W -1W -2W -3W +1W +2W +3W
Monate: 1M, 3M, 6M -1M -3M -6M +1M +3M +6M
Jahre:    1J, 3J, 5J, 10J -1J -3J -5J -10J +1J +3J +5J +10J
Nutze für die Darstellung ... ?
Originaldaten oder Mittelwerte auf ...
Stundenbasis Tagesbasis Wochenbasis
Monatsbasis Jahresbasis      Datenbasis: Original-Daten
Darstellen als:
Statistik (Auto) Statistik J:M      Darstellung:
Zur Graphik,    zurück zur Übersicht aller Sensoren.
 
Tabellarische Datenbersicht: ?
 
Sensor: Nr:Datum:Temp:Abs-Feuchte:Windchill:Wind:
Aussen-T/F 1 13-05-2015 00:00:00 13.9 C 7.91 g/m*3 13.9 C 3.2 km/h
2 13-05-2015 00:05:00 13.7 C 7.82 g/m*3 13.7 C 6.4 km/h
3 13-05-2015 00:10:00 13.5 C 7.84 g/m*3 13.5 C 1.6 km/h
4 13-05-2015 00:15:00 13.2 C 7.58 g/m*3 13.2 C 6.4 km/h
5 13-05-2015 00:20:00 13.2 C 7.58 g/m*3 13.2 C 4.8 km/h
6 13-05-2015 00:25:00 13.3 C 7.86 g/m*3 13.3 C 3.2 km/h
7 13-05-2015 00:30:00 13.2 C 7.81 g/m*3 13.2 C 4.8 km/h
8 13-05-2015 00:35:00 13.1 C 7.87 g/m*3 13.1 C 3.2 km/h
9 13-05-2015 00:40:00 13.1 C 7.65 g/m*3 13.1 C 11.3 km/h
10 13-05-2015 00:45:00 13.1 C 7.87 g/m*3 13.1 C 11.3 km/h
11 13-05-2015 00:50:00 12.9 C 7.89 g/m*3 12.9 C 0 km/h
12 13-05-2015 00:55:00 12.8 C 7.84 g/m*3 12.8 C 3.2 km/h
13 13-05-2015 01:00:00 12.8 C 7.84 g/m*3 12.8 C 1.6 km/h
14 13-05-2015 01:05:00 12.7 C 8.01 g/m*3 12.7 C 0 km/h
15 13-05-2015 01:10:00 12.3 C 7.93 g/m*3 12.3 C 0 km/h
16 13-05-2015 01:15:00 11.8 C 7.89 g/m*3 11.8 C 0 km/h
17 13-05-2015 01:20:00 11.5 C 7.85 g/m*3 11.5 C 0 km/h
18 13-05-2015 01:25:00 11.3 C 7.85 g/m*3 11.3 C 0 km/h
19 13-05-2015 01:30:00 11.2 C 8.01 g/m*3 11.2 C 0 km/h
20 13-05-2015 01:35:00 11.1 C 7.96 g/m*3 11.1 C 1.6 km/h
21 13-05-2015 01:40:00 11.1 C 7.86 g/m*3 11.1 C 0 km/h
22 13-05-2015 01:45:00 10.9 C 7.86 g/m*3 10.9 C 0 km/h
23 13-05-2015 01:50:00 10.8 C 7.81 g/m*3 10.8 C 0 km/h
24 13-05-2015 01:55:00 10.7 C 7.86 g/m*3 10.7 C 0 km/h
25 13-05-2015 02:00:00 10.6 C 7.81 g/m*3 10.6 C 0 km/h
Sensor: Nr:Datum:Temp:Abs-Feuchte:Windchill:Wind:
Aussen-T/F 26 13-05-2015 02:05:00 10.5 C 7.86 g/m*3 10.5 C 0 km/h
27 13-05-2015 02:10:00 10.4 C 7.81 g/m*3 10.4 C 0 km/h
28 13-05-2015 02:15:00 10.3 C 7.85 g/m*3 10.3 C 0 km/h
29 13-05-2015 02:20:00 10.3 C 7.76 g/m*3 10.3 C 0 km/h
30 13-05-2015 02:25:00 10.3 C 7.85 g/m*3 10.3 C 0 km/h
31 13-05-2015 02:30:00 10.2 C 7.8 g/m*3 10.2 C 0 km/h
32 13-05-2015 02:35:00 10.1 C 7.75 g/m*3 10.1 C 0 km/h
33 13-05-2015 02:40:00 10 C 7.71 g/m*3 10 C 0 km/h
34 13-05-2015 02:45:00 9.9 C 7.75 g/m*3 9.9 C 1.6 km/h
35 13-05-2015 02:50:00 9.8 C 7.7 g/m*3 9.8 C 0 km/h
36 13-05-2015 02:55:00 9.6 C 7.6 g/m*3 9.6 C 0 km/h
37 13-05-2015 03:00:00 9.4 C 7.6 g/m*3 9.4 C 0 km/h
38 13-05-2015 03:05:00 9.3 C 7.64 g/m*3 9.3 C 0 km/h
39 13-05-2015 03:10:00 9.2 C 7.59 g/m*3 9.2 C 0 km/h
40 13-05-2015 03:15:00 9.2 C 7.59 g/m*3 9.2 C 1.6 km/h
41 13-05-2015 03:20:00 9.1 C 7.54 g/m*3 9.1 C 0 km/h
42 13-05-2015 03:25:00 8.9 C 7.53 g/m*3 8.9 C 0 km/h
43 13-05-2015 03:30:00 8.8 C 7.49 g/m*3 8.8 C 0 km/h
44 13-05-2015 03:35:00 8.7 C 7.52 g/m*3 8.7 C 0 km/h
45 13-05-2015 03:40:00 8.7 C 7.52 g/m*3 8.7 C 0 km/h
46 13-05-2015 03:45:00 8.6 C 7.48 g/m*3 8.6 C 0 km/h
47 13-05-2015 03:50:00 8.5 C 7.43 g/m*3 8.5 C 0 km/h
48 13-05-2015 03:55:00 8.4 C 7.38 g/m*3 8.4 C 0 km/h
49 13-05-2015 04:00:00 8.3 C 7.42 g/m*3 8.3 C 1.6 km/h
50 13-05-2015 04:05:00 8.3 C 7.42 g/m*3 8.3 C 0 km/h
Sensor: Nr:Datum:Temp:Abs-Feuchte:Windchill:Wind:
Aussen-T/F 51 13-05-2015 04:10:00 8.3 C 7.42 g/m*3 8.3 C 0 km/h
52 13-05-2015 04:15:00 8.3 C 7.42 g/m*3 8.3 C 0 km/h
53 13-05-2015 04:20:00 8.3 C 7.5 g/m*3 8.3 C 0 km/h
54 13-05-2015 04:25:00 8.3 C 7.42 g/m*3 8.3 C 0 km/h
55 13-05-2015 04:30:00 8.2 C 7.45 g/m*3 8.2 C 1.6 km/h
56 13-05-2015 04:35:00 8.2 C 7.37 g/m*3 8.2 C 0 km/h
57 13-05-2015 04:40:00 8.2 C 7.37 g/m*3 8.2 C 1.6 km/h
58 13-05-2015 04:45:00 8.1 C 7.41 g/m*3 8.1 C 0 km/h
59 13-05-2015 04:50:00 7.9 C 7.31 g/m*3 7.9 C 0 km/h
60 13-05-2015 04:55:00 7.8 C 7.26 g/m*3 7.8 C 0 km/h
61 13-05-2015 05:00:00 7.7 C 7.22 g/m*3 7.7 C 0 km/h
62 13-05-2015 05:05:00 7.5 C 7.12 g/m*3 7.5 C 0 km/h
63 13-05-2015 05:10:00 7.4 C 7.16 g/m*3 7.4 C 0 km/h
64 13-05-2015 05:15:00 7.4 C 7.16 g/m*3 7.4 C 0 km/h
65 13-05-2015 05:20:00 7.3 C 7.11 g/m*3 7.3 C 0 km/h
66 13-05-2015 05:25:00 7.2 C 7.06 g/m*3 7.2 C 1.6 km/h
67 13-05-2015 05:30:00 7.2 C 7.14 g/m*3 7.2 C 0 km/h
68 13-05-2015 05:35:00 7.2 C 7.14 g/m*3 7.2 C 0 km/h
69 13-05-2015 05:40:00 7.2 C 7.14 g/m*3 7.2 C 0 km/h
70 13-05-2015 05:45:00 7.1 C 7.1 g/m*3 7.1 C 0 km/h
71 13-05-2015 05:50:00 7 C 7.05 g/m*3 7 C 0 km/h
72 13-05-2015 05:55:00 6.9 C 7.01 g/m*3 6.9 C 0 km/h
73 13-05-2015 06:00:00 6.9 C 7.01 g/m*3 6.9 C 0 km/h
74 13-05-2015 06:05:00 6.8 C 6.96 g/m*3 6.8 C 0 km/h
75 13-05-2015 06:10:00 6.8 C 7.04 g/m*3 6.8 C 0 km/h
Sensor: Nr:Datum:Temp:Abs-Feuchte:Windchill:Wind:
Aussen-T/F 76 13-05-2015 06:15:00 6.8 C 7.04 g/m*3 6.8 C 0 km/h
77 13-05-2015 06:20:00 6.8 C 7.04 g/m*3 6.8 C 0 km/h
78 13-05-2015 06:25:00 6.8 C 7.04 g/m*3 6.8 C 0 km/h
79 13-05-2015 06:30:00 6.8 C 7.04 g/m*3 6.8 C 0 km/h
80 13-05-2015 06:35:00 6.8 C 7.04 g/m*3 6.8 C 0 km/h
81 13-05-2015 06:40:00 6.8 C 7.04 g/m*3 6.8 C 0 km/h
82 13-05-2015 06:45:00 6.8 C 7.04 g/m*3 6.8 C 0 km/h
83 13-05-2015 06:50:00 6.8 C 7.11 g/m*3 6.8 C 0 km/h
84 13-05-2015 06:55:00 6.8 C 7.11 g/m*3 6.8 C 0 km/h
85 13-05-2015 07:00:00 6.8 C 7.11 g/m*3 6.8 C 0 km/h
86 13-05-2015 07:05:00 6.9 C 7.16 g/m*3 6.9 C 0 km/h
87 13-05-2015 07:10:00 6.9 C 7.16 g/m*3 6.9 C 0 km/h
88 13-05-2015 07:15:00 7 C 7.21 g/m*3 7 C 0 km/h
89 13-05-2015 07:20:00 7.1 C 7.25 g/m*3 7.1 C 0 km/h
90 13-05-2015 07:25:00 7.1 C 7.25 g/m*3 7.1 C 0 km/h
91 13-05-2015 07:30:00 7.1 C 7.25 g/m*3 7.1 C 0 km/h
92 13-05-2015 07:35:00 7.2 C 7.3 g/m*3 7.2 C 0 km/h
93 13-05-2015 07:40:00 7.3 C 7.35 g/m*3 7.3 C 0 km/h
94 13-05-2015 07:45:00 7.3 C 7.35 g/m*3 7.3 C 0 km/h
95 13-05-2015 07:50:00 7.4 C 7.4 g/m*3 7.4 C 0 km/h
96 13-05-2015 07:55:00 7.6 C 7.49 g/m*3 7.6 C 0 km/h
97 13-05-2015 08:00:00 7.7 C 7.46 g/m*3 7.7 C 0 km/h
98 13-05-2015 08:05:00 7.8 C 7.59 g/m*3 7.8 C 0 km/h
99 13-05-2015 08:10:00 7.9 C 7.56 g/m*3 7.9 C 0 km/h
100 13-05-2015 08:15:00 8.2 C 7.7 g/m*3 8.2 C 0 km/h
Sensor: Nr:Datum:Temp:Abs-Feuchte:Windchill:Wind:
Aussen-T/F 101 13-05-2015 08:20:00 8.7 C 7.87 g/m*3 8.7 C 0 km/h
102 13-05-2015 08:25:00 8.9 C 7.88 g/m*3 8.9 C 0 km/h
103 13-05-2015 08:30:00 9.3 C 8 g/m*3 9.3 C 0 km/h
104 13-05-2015 08:35:00 9.6 C 7.97 g/m*3 9.6 C 0 km/h
105 13-05-2015 08:40:00 9.8 C 7.98 g/m*3 9.8 C 0 km/h
106 13-05-2015 08:45:00 9.9 C 8.03 g/m*3 9.9 C 0 km/h
107 13-05-2015 08:50:00 9.9 C 8.03 g/m*3 9.9 C 0 km/h
108 13-05-2015 08:55:00 9.8 C 7.98 g/m*3 9.8 C 0 km/h
109 13-05-2015 09:00:00 9.7 C 7.93 g/m*3 9.7 C 0 km/h
110 13-05-2015 09:05:00 9.7 C 7.93 g/m*3 9.7 C 0 km/h
111 13-05-2015 09:10:00 9.8 C 8.07 g/m*3 9.8 C 0 km/h
112 13-05-2015 09:15:00 9.9 C 8.03 g/m*3 9.9 C 0 km/h
113 13-05-2015 09:20:00 10 C 8.08 g/m*3 10 C 0 km/h
114 13-05-2015 09:25:00 10.2 C 8.18 g/m*3 10.2 C 0 km/h
115 13-05-2015 09:30:00 10.3 C 8.24 g/m*3 10.3 C 0 km/h
116 13-05-2015 09:35:00 10.4 C 8.29 g/m*3 10.4 C 0 km/h
117 13-05-2015 09:40:00 10.6 C 8.39 g/m*3 10.6 C 0 km/h
118 13-05-2015 09:45:00 10.7 C 8.35 g/m*3 10.7 C 0 km/h
119 13-05-2015 09:50:00 10.8 C 8.5 g/m*3 10.8 C 0 km/h
120 13-05-2015 09:55:00 10.9 C 8.55 g/m*3 10.9 C 0 km/h
121 13-05-2015 10:00:00 11.1 C 8.76 g/m*3 11.1 C 1.6 km/h
122 13-05-2015 10:05:00 11.2 C 8.82 g/m*3 11.2 C 0 km/h
123 13-05-2015 10:10:00 11.5 C 8.99 g/m*3 11.5 C 0 km/h
124 13-05-2015 10:15:00 11.9 C 9.11 g/m*3 11.9 C 0 km/h
125 13-05-2015 10:20:00 12.3 C 9.12 g/m*3 12.3 C 3.2 km/h
Sensor: Nr:Datum:Temp:Abs-Feuchte:Windchill:Wind:
Aussen-T/F 126 13-05-2015 10:25:00 12.6 C 9.18 g/m*3 12.6 C 3.2 km/h
127 13-05-2015 10:30:00 12.8 C 8.74 g/m*3 12.8 C 1.6 km/h
128 13-05-2015 10:35:00 13.2 C 8.84 g/m*3 13.2 C 0 km/h
129 13-05-2015 10:40:00 13.6 C 8.36 g/m*3 13.6 C 1.6 km/h
130 13-05-2015 10:45:00 14.1 C 8.37 g/m*3 14.1 C 1.6 km/h
131 13-05-2015 10:50:00 14.6 C 8.88 g/m*3 14.6 C 0 km/h
132 13-05-2015 10:55:00 15.1 C 8.39 g/m*3 15.1 C 3.2 km/h
133 13-05-2015 11:00:00 15.7 C 8.83 g/m*3 15.7 C 3.2 km/h
134 13-05-2015 11:05:00 16.2 C 8.96 g/m*3 16.2 C 3.2 km/h
135 13-05-2015 11:10:00 16.8 C 9.01 g/m*3 16.8 C 3.2 km/h
136 13-05-2015 11:15:00 17.3 C 8.84 g/m*3 17.3 C 3.2 km/h
137 13-05-2015 11:20:00 17.5 C 7.9 g/m*3 17.5 C 4.8 km/h
138 13-05-2015 11:25:00 17.6 C 7.95 g/m*3 17.6 C 3.2 km/h
139 13-05-2015 11:30:00 17.7 C 8.9 g/m*3 17.7 C 1.6 km/h
140 13-05-2015 11:35:00 17.7 C 8.15 g/m*3 17.7 C 4.8 km/h
141 13-05-2015 11:40:00 17.6 C 8.7 g/m*3 17.6 C 3.2 km/h
142 13-05-2015 11:45:00 17.6 C 7.8 g/m*3 17.6 C 6.4 km/h
143 13-05-2015 11:50:00 17.8 C 8.65 g/m*3 17.8 C 1.6 km/h
144 13-05-2015 11:55:00 18.1 C 8.5 g/m*3 18.1 C 4.8 km/h
145 13-05-2015 12:00:00 18.2 C 7.77 g/m*3 18.2 C 8.1 km/h
146 13-05-2015 12:05:00 18.3 C 7.66 g/m*3 18.3 C 4.8 km/h
147 13-05-2015 12:10:00 18.6 C 8.75 g/m*3 18.6 C 8.1 km/h
148 13-05-2015 12:15:00 18.9 C 8.1 g/m*3 18.9 C 6.4 km/h
149 13-05-2015 12:20:00 18.8 C 8.05 g/m*3 18.8 C 3.2 km/h
150 13-05-2015 12:25:00 18.8 C 7.73 g/m*3 18.8 C 4.8 km/h
Sensor: Nr:Datum:Temp:Abs-Feuchte:Windchill:Wind:
Aussen-T/F 151 13-05-2015 12:30:00 18.7 C 7.84 g/m*3 18.7 C 3.2 km/h
152 13-05-2015 12:35:00 18.9 C 8.1 g/m*3 18.9 C 6.4 km/h
153 13-05-2015 12:40:00 19.1 C 8.03 g/m*3 19.1 C 3.2 km/h
154 13-05-2015 12:45:00 19.4 C 7.84 g/m*3 19.4 C 4.8 km/h
155 13-05-2015 12:50:00 19.5 C 7.38 g/m*3 19.5 C 8.1 km/h
156 13-05-2015 12:55:00 19.4 C 8.51 g/m*3 19.4 C 3.2 km/h
157 13-05-2015 13:00:00 19.6 C 7.6 g/m*3 19.6 C 4.8 km/h
158 13-05-2015 13:05:00 19.9 C 7.56 g/m*3 19.9 C 4.8 km/h
159 13-05-2015 13:10:00 20.2 C 7.87 g/m*3 20.2 C 6.4 km/h
160 13-05-2015 13:15:00 20.5 C 7.65 g/m*3 20.5 C 6.4 km/h
161 13-05-2015 13:20:00 20.8 C 8.69 g/m*3 20.8 C 1.6 km/h
162 13-05-2015 13:25:00 21.1 C 8.29 g/m*3 21.1 C 6.4 km/h
163 13-05-2015 13:30:00 21.3 C 7.46 g/m*3 21.3 C 14.5 km/h
164 13-05-2015 13:35:00 21.6 C 7.97 g/m*3 21.6 C 14.5 km/h
165 13-05-2015 13:40:00 21.7 C 7.63 g/m*3 21.7 C 4.8 km/h
166 13-05-2015 13:45:00 21.8 C 7.29 g/m*3 21.8 C 6.4 km/h
167 13-05-2015 13:50:00 21.8 C 7.87 g/m*3 21.8 C 8.1 km/h
168 13-05-2015 13:55:00 22.2 C 7.46 g/m*3 22.2 C 6.4 km/h
169 13-05-2015 14:00:00 22.3 C 7.7 g/m*3 22.3 C 8.1 km/h
170 13-05-2015 14:05:00 22.3 C 7.11 g/m*3 22.3 C 6.4 km/h
171 13-05-2015 14:10:00 22.3 C 6.91 g/m*3 22.3 C 9.7 km/h
172 13-05-2015 14:15:00 22.2 C 7.26 g/m*3 22.2 C 8.1 km/h
173 13-05-2015 14:20:00 22.3 C 7.5 g/m*3 22.3 C 6.4 km/h
174 13-05-2015 14:25:00 22.4 C 6.75 g/m*3 22.4 C 6.4 km/h
175 13-05-2015 14:30:00 22.5 C 6.59 g/m*3 22.5 C 6.4 km/h
Sensor: Nr:Datum:Temp:Abs-Feuchte:Windchill:Wind:
Aussen-T/F 176 13-05-2015 14:35:00 22.2 C 6.87 g/m*3 22.2 C 8.1 km/h
177 13-05-2015 14:40:00 22.2 C 7.66 g/m*3 22.2 C 6.4 km/h
178 13-05-2015 14:45:00 22.3 C 7.11 g/m*3 22.3 C 6.4 km/h
179 13-05-2015 14:50:00 22.6 C 6.83 g/m*3 22.6 C 9.7 km/h
180 13-05-2015 14:55:00 22.7 C 7.88 g/m*3 22.7 C 3.2 km/h
181 13-05-2015 15:00:00 22.7 C 6.67 g/m*3 22.7 C 8.1 km/h
182 13-05-2015 15:05:00 22.8 C 7.92 g/m*3 22.8 C 6.4 km/h
183 13-05-2015 15:10:00 23 C 6.99 g/m*3 23 C 8.1 km/h
184 13-05-2015 15:15:00 23.1 C 5.99 g/m*3 23.1 C 11.3 km/h
185 13-05-2015 15:20:00 22.8 C 6.1 g/m*3 22.8 C 11.3 km/h
186 13-05-2015 15:25:00 22.6 C 6.23 g/m*3 22.6 C 11.3 km/h
187 13-05-2015 15:30:00 22.6 C 6.23 g/m*3 22.6 C 16.1 km/h
188 13-05-2015 15:35:00 22.7 C 5.86 g/m*3 22.7 C 14.5 km/h
189 13-05-2015 15:40:00 23.2 C 6.24 g/m*3 23.2 C 6.4 km/h
190 13-05-2015 15:45:00 23.6 C 6.17 g/m*3 23.6 C 14.5 km/h
191 13-05-2015 15:50:00 23.2 C 6.44 g/m*3 23.2 C 9.7 km/h
192 13-05-2015 15:55:00 22.3 C 6.32 g/m*3 22.3 C 3.2 km/h
193 13-05-2015 16:00:00 21.6 C 7.4 g/m*3 21.6 C 1.6 km/h
194 13-05-2015 16:05:00 21.2 C 7.04 g/m*3 21.2 C 4.8 km/h
195 13-05-2015 16:10:00 20.9 C 8.74 g/m*3 20.9 C 3.2 km/h
196 13-05-2015 16:15:00 20.6 C 8.59 g/m*3 20.6 C 1.6 km/h
197 13-05-2015 16:20:00 20.5 C 7.3 g/m*3 20.5 C 1.6 km/h
198 13-05-2015 16:25:00 20.7 C 7.74 g/m*3 20.7 C 3.2 km/h
199 13-05-2015 16:30:00 20.7 C 8.1 g/m*3 20.7 C 0 km/h
200 13-05-2015 16:35:00 20.8 C 8.15 g/m*3 20.8 C 0 km/h
Sensor: Nr:Datum:Temp:Abs-Feuchte:Windchill:Wind:
Aussen-T/F 201 13-05-2015 16:40:00 20.6 C 9.84 g/m*3 20.6 C 0 km/h
202 13-05-2015 16:45:00 20.2 C 9.62 g/m*3 20.2 C 0 km/h
203 13-05-2015 16:50:00 19.7 C 9 g/m*3 19.7 C 0 km/h
204 13-05-2015 16:55:00 19.4 C 10.34 g/m*3 19.4 C 0 km/h
205 13-05-2015 17:00:00 19.3 C 10.12 g/m*3 19.3 C 0 km/h
206 13-05-2015 17:05:00 19.3 C 9.45 g/m*3 19.3 C 0 km/h
207 13-05-2015 17:10:00 19.7 C 9.68 g/m*3 19.7 C 0 km/h
208 13-05-2015 17:15:00 19.9 C 9.45 g/m*3 19.9 C 0 km/h
209 13-05-2015 17:20:00 19.8 C 10.25 g/m*3 19.8 C 0 km/h
210 13-05-2015 17:25:00 19.3 C 10.12 g/m*3 19.3 C 1.6 km/h
211 13-05-2015 17:30:00 19 C 10.27 g/m*3 19 C 0 km/h
212 13-05-2015 17:35:00 18.8 C 9.99 g/m*3 18.8 C 1.6 km/h
213 13-05-2015 17:40:00 18.6 C 10.03 g/m*3 18.6 C 1.6 km/h
214 13-05-2015 17:45:00 18.3 C 9.85 g/m*3 18.3 C 1.6 km/h
215 13-05-2015 17:50:00 18 C 9.52 g/m*3 18 C 1.6 km/h
216 13-05-2015 17:55:00 17.7 C 9.51 g/m*3 17.7 C 3.2 km/h
217 13-05-2015 18:00:00 17.6 C 9.6 g/m*3 17.6 C 1.6 km/h
218 13-05-2015 18:05:00 17.4 C 9.34 g/m*3 17.4 C 1.6 km/h
219 13-05-2015 18:10:00 17.3 C 9.43 g/m*3 17.3 C 1.6 km/h
220 13-05-2015 18:15:00 17.3 C 9.58 g/m*3 17.3 C 1.6 km/h
221 13-05-2015 18:20:00 17.3 C 9.43 g/m*3 17.3 C 0 km/h
222 13-05-2015 18:25:00 17.4 C 9.78 g/m*3 17.4 C 0 km/h
223 13-05-2015 18:30:00 17.7 C 10.11 g/m*3 17.7 C 0 km/h
224 13-05-2015 18:35:00 18 C 9.52 g/m*3 18 C 3.2 km/h
225 13-05-2015 18:40:00 18.5 C 9.49 g/m*3 18.5 C 1.6 km/h
Sensor: Nr:Datum:Temp:Abs-Feuchte:Windchill:Wind:
Aussen-T/F 226 13-05-2015 18:45:00 18.9 C 8.59 g/m*3 18.9 C 8.1 km/h
227 13-05-2015 18:50:00 19 C 8.96 g/m*3 19 C 1.6 km/h
228 13-05-2015 18:55:00 18.9 C 8.91 g/m*3 18.9 C 1.6 km/h
229 13-05-2015 19:00:00 18.9 C 8.75 g/m*3 18.9 C 1.6 km/h
230 13-05-2015 19:05:00 18.9 C 8.75 g/m*3 18.9 C 1.6 km/h
231 13-05-2015 19:10:00 19 C 8.8 g/m*3 19 C 0 km/h
232 13-05-2015 19:15:00 18.9 C 9.88 g/m*3 18.9 C 1.6 km/h
233 13-05-2015 19:20:00 18.5 C 9.81 g/m*3 18.5 C 0 km/h
234 13-05-2015 19:25:00 18.1 C 9.58 g/m*3 18.1 C 1.6 km/h
235 13-05-2015 19:30:00 17.8 C 8.95 g/m*3 17.8 C 1.6 km/h
236 13-05-2015 19:35:00 17.7 C 9.51 g/m*3 17.7 C 1.6 km/h
237 13-05-2015 19:40:00 17.6 C 9.3 g/m*3 17.6 C 1.6 km/h
238 13-05-2015 19:45:00 17.4 C 9.34 g/m*3 17.4 C 3.2 km/h
239 13-05-2015 19:50:00 17.3 C 8.99 g/m*3 17.3 C 1.6 km/h
240 13-05-2015 19:55:00 17.2 C 9.52 g/m*3 17.2 C 1.6 km/h
241 13-05-2015 20:00:00 17 C 8.68 g/m*3 17 C 1.6 km/h
242 13-05-2015 20:05:00 17 C 8.39 g/m*3 17 C 1.6 km/h
243 13-05-2015 20:10:00 17.1 C 8.73 g/m*3 17.1 C 1.6 km/h
244 13-05-2015 20:15:00 17.2 C 8.79 g/m*3 17.2 C 4.8 km/h
245 13-05-2015 20:20:00 17.4 C 8.3 g/m*3 17.4 C 3.2 km/h
246 13-05-2015 20:25:00 17.6 C 7.95 g/m*3 17.6 C 1.6 km/h
247 13-05-2015 20:30:00 17.8 C 8.04 g/m*3 17.8 C 9.7 km/h
248 13-05-2015 20:35:00 17.9 C 8.4 g/m*3 17.9 C 3.2 km/h
249 13-05-2015 20:40:00 17.9 C 8.24 g/m*3 17.9 C 3.2 km/h
250 13-05-2015 20:45:00 17.9 C 7.94 g/m*3 17.9 C 6.4 km/h
Sensor: Nr:Datum:Temp:Abs-Feuchte:Windchill:Wind:
Aussen-T/F 251 13-05-2015 20:50:00 18 C 7.83 g/m*3 18 C 14.5 km/h
252 13-05-2015 20:55:00 18.1 C 7.88 g/m*3 18.1 C 6.4 km/h
253 13-05-2015 21:00:00 17.9 C 7.94 g/m*3 17.9 C 3.2 km/h
254 13-05-2015 21:05:00 17.6 C 8.1 g/m*3 17.6 C 4.8 km/h
255 13-05-2015 21:10:00 17.3 C 8.25 g/m*3 17.3 C 8.1 km/h
256 13-05-2015 21:15:00 17.1 C 7.86 g/m*3 17.1 C 4.8 km/h
257 13-05-2015 21:20:00 17.1 C 7.71 g/m*3 17.1 C 4.8 km/h
258 13-05-2015 21:25:00 17 C 7.96 g/m*3 17 C 3.2 km/h
259 13-05-2015 21:30:00 16.7 C 8.24 g/m*3 16.7 C 6.4 km/h
260 13-05-2015 21:35:00 16.3 C 8.05 g/m*3 16.3 C 1.6 km/h
261 13-05-2015 21:40:00 16.1 C 8.36 g/m*3 16.1 C 6.4 km/h
262 13-05-2015 21:45:00 16 C 8.17 g/m*3 16 C 3.2 km/h
263 13-05-2015 21:50:00 15.9 C 7.85 g/m*3 15.9 C 3.2 km/h
264 13-05-2015 21:55:00 15.8 C 8.35 g/m*3 15.8 C 1.6 km/h
265 13-05-2015 22:00:00 15.7 C 7.76 g/m*3 15.7 C 4.8 km/h
266 13-05-2015 22:05:00 15.7 C 7.89 g/m*3 15.7 C 0 km/h
267 13-05-2015 22:10:00 15.6 C 7.71 g/m*3 15.6 C 4.8 km/h
268 13-05-2015 22:15:00 15.6 C 8.51 g/m*3 15.6 C 1.6 km/h
269 13-05-2015 22:20:00 15.3 C 8.49 g/m*3 15.3 C 0 km/h
270 13-05-2015 22:25:00 15 C 8.21 g/m*3 15 C 1.6 km/h
271 13-05-2015 22:30:00 14.8 C 7.98 g/m*3 14.8 C 1.6 km/h
272 13-05-2015 22:35:00 14.8 C 8.49 g/m*3 14.8 C 3.2 km/h
273 13-05-2015 22:40:00 14.7 C 8.56 g/m*3 14.7 C 1.6 km/h
274 13-05-2015 22:45:00 14.6 C 8.51 g/m*3 14.6 C 3.2 km/h
275 13-05-2015 22:50:00 14.4 C 8.41 g/m*3 14.4 C 1.6 km/h
Sensor: Nr:Datum:Temp:Abs-Feuchte:Windchill:Wind:
Aussen-T/F 276 13-05-2015 22:55:00 14.3 C 8.35 g/m*3 14.3 C 3.2 km/h
277 13-05-2015 23:00:00 14.3 C 8.35 g/m*3 14.3 C 1.6 km/h
278 13-05-2015 23:05:00 14.3 C 8.48 g/m*3 14.3 C 1.6 km/h
279 13-05-2015 23:10:00 14.2 C 8.43 g/m*3 14.2 C 1.6 km/h
280 13-05-2015 23:15:00 14.2 C 8.3 g/m*3 14.2 C 1.6 km/h
281 13-05-2015 23:20:00 14.1 C 8.13 g/m*3 14.1 C 0 km/h
282 13-05-2015 23:25:00 14.2 C 8.55 g/m*3 14.2 C 0 km/h
283 13-05-2015 23:30:00 14.1 C 8.37 g/m*3 14.1 C 1.6 km/h
284 13-05-2015 23:35:00 14.1 C 8.25 g/m*3 14.1 C 0 km/h
285 13-05-2015 23:40:00 14.1 C 8.25 g/m*3 14.1 C 0 km/h
286 13-05-2015 23:45:00 14.1 C 8.37 g/m*3 14.1 C 0 km/h
287 13-05-2015 23:50:00 14.1 C 8.37 g/m*3 14.1 C 1.6 km/h
288 13-05-2015 23:55:00 14.2 C 8.43 g/m*3 14.2 C 0 km/h

Legende:
   Min
   Max


Maximal/Minimal-Werte vom 13.05.2015 - 13.05.2015

Sensor Min Max Avg
Temp
(Aussen-T/F)
6.8 °C
13-05-2015  06:05:00
23.6 °C
13-05-2015  15:45:00
14.45 °C
Abs-Feuchte
(Aussen-T/F)
5.86 g/m*3
13-05-2015  15:35:00
10.34 g/m*3
13-05-2015  16:55:00
7.99 g/m*3
Windchill
(Aussen-T/F)
6.8 C
13-05-2015  06:05:00
23.6 C
13-05-2015  15:45:00
14.4 C

Die Daten stammen von einer Davis Vantage Pro 2 Wetter-Station und werden unter Linux mit der Software wview2wettercgi und aufbereitet. Alle Angaben erfolgen ohne Gewähr für ihre Vollständigkeit oder Richtigkeit.
Kontakt: Rainer Krienke krienke@uni-koblenz.de . Meine Webseiten an der Uni Koblenz oder privat.
Version: $Revision: 0.78 $